Argonia, Kansas
Current Conditions -  °F | °C
As of 7:53 AM on Thursday 29 Jan 2015 (Local Time) from KICT Reporting Station
Scattered Clouds Scattered Clouds  
Wind Chill: 33°   Ceiling: Unl
Heat Index: 41°   Visibility: 10mi
Dew Point: 29°   Wind: 16mph
Humidity: 62%   Direction: 360°N
Pressure: 30.33"   Gusts: 29mph
Location:  37.27°N, 97.77°W
Report Text: KICT 291353Z 36014G25KT 10SM FEW028 SCT250 05/M02 A3033 RMK AO2 PK WND 36029/1341 SLP274 T00501017
Loading
Personal Weather Stations






























Interactive Weather Map New forecast layout! Learn more

10-Day Weather Forecast

Advertisements
Track Severe Weather on mobile